Terminal Aerodrome Forecast
Issued by NWS

Home | Current Version | Previous Version | Text Only | Print | Product List | Glossary On
Versions: 1 2 3 4 5 6 7 8 9 10 11 12 13
000
FTUS45 KPSR 302300
TAFIPL
TAF
KIPL 302321Z 3100/3124 VRB03KT P6SM BKN250
     FM310300 29006KT P6SM BKN250
     FM311500 VRB03KT P6SM SCT250
     FM312200 26007KT P6SM SCT250=

USA.gov is the U.S. government's official web portal to all federal, state and local government web resources and services.